sensor_id;sensor_type;location;lat;lon;timestamp;P1;durP1;ratioP1;P2;durP2;ratioP2
47519;SDS011;33252;48.122;11.538;2023-05-07T00:01:25;8.55;;;6.90;;
47519;SDS011;33252;48.122;11.538;2023-05-07T00:03:51;7.38;;;6.63;;
47519;SDS011;33252;48.122;11.538;2023-05-07T00:06:16;13.70;;;7.82;;
47519;SDS011;33252;48.122;11.538;2023-05-07T00:08:42;6.28;;;5.68;;
47519;SDS011;33252;48.122;11.538;2023-05-07T00:11:08;9.38;;;7.60;;
47519;SDS011;33252;48.122;11.538;2023-05-07T00:13:33;9.73;;;7.15;;
47519;SDS011;33252;48.122;11.538;2023-05-07T00:16:01;8.90;;;6.90;;
47519;SDS011;33252;48.122;11.538;2023-05-07T00:18:27;9.93;;;7.18;;
47519;SDS011;33252;48.122;11.538;2023-05-07T00:20:53;9.07;;;6.45;;
47519;SDS011;33252;48.122;11.538;2023-05-07T00:23:19;8.23;;;6.55;;
47519;SDS011;33252;48.122;11.538;2023-05-07T00:25:44;7.20;;;6.40;;
47519;SDS011;33252;48.122;11.538;2023-05-07T00:28:10;7.97;;;6.93;;
47519;SDS011;33252;48.122;11.538;2023-05-07T00:30:35;8.93;;;6.25;;
47519;SDS011;33252;48.122;11.538;2023-05-07T00:33:01;7.82;;;6.03;;
47519;SDS011;33252;48.122;11.538;2023-05-07T00:35:28;10.20;;;6.47;;
47519;SDS011;33252;48.122;11.538;2023-05-07T00:37:57;8.65;;;6.95;;
47519;SDS011;33252;48.122;11.538;2023-05-07T00:40:22;9.13;;;7.28;;
47519;SDS011;33252;48.122;11.538;2023-05-07T00:42:48;10.27;;;7.22;;
47519;SDS011;33252;48.122;11.538;2023-05-07T00:45:15;8.98;;;6.80;;
47519;SDS011;33252;48.122;11.538;2023-05-07T00:47:42;12.43;;;7.38;;
47519;SDS011;33252;48.122;11.538;2023-05-07T00:50:09;11.65;;;7.18;;
47519;SDS011;33252;48.122;11.538;2023-05-07T00:52:36;8.23;;;6.97;;
47519;SDS011;33252;48.122;11.538;2023-05-07T00:55:04;9.27;;;6.63;;
47519;SDS011;33252;48.122;11.538;2023-05-07T00:57:37;7.53;;;6.55;;
47519;SDS011;33252;48.122;11.538;2023-05-07T01:00:06;9.98;;;7.43;;
47519;SDS011;33252;48.122;11.538;2023-05-07T01:02:34;8.45;;;6.68;;
47519;SDS011;33252;48.122;11.538;2023-05-07T01:05:07;7.47;;;6.22;;
47519;SDS011;33252;48.122;11.538;2023-05-07T01:07:36;11.30;;;7.10;;
47519;SDS011;33252;48.122;11.538;2023-05-07T01:10:04;9.52;;;6.70;;
47519;SDS011;33252;48.122;11.538;2023-05-07T01:12:31;7.60;;;6.55;;
47519;SDS011;33252;48.122;11.538;2023-05-07T01:14:57;9.23;;;6.78;;
47519;SDS011;33252;48.122;11.538;2023-05-07T01:17:23;10.35;;;7.40;;
47519;SDS011;33252;48.122;11.538;2023-05-07T01:19:49;8.50;;;6.70;;
47519;SDS011;33252;48.122;11.538;2023-05-07T01:22:16;9.05;;;7.75;;
47519;SDS011;33252;48.122;11.538;2023-05-07T01:24:46;9.32;;;6.78;;
47519;SDS011;33252;48.122;11.538;2023-05-07T01:27:12;9.32;;;6.65;;
47519;SDS011;33252;48.122;11.538;2023-05-07T01:29:38;7.53;;;6.82;;
47519;SDS011;33252;48.122;11.538;2023-05-07T01:32:03;10.75;;;7.60;;
47519;SDS011;33252;48.122;11.538;2023-05-07T01:34:31;9.50;;;7.57;;
47519;SDS011;33252;48.122;11.538;2023-05-07T01:36:59;10.50;;;7.53;;
47519;SDS011;33252;48.122;11.538;2023-05-07T01:39:26;11.18;;;7.65;;
47519;SDS011;33252;48.122;11.538;2023-05-07T01:41:54;8.50;;;7.53;;
47519;SDS011;33252;48.122;11.538;2023-05-07T01:44:21;8.85;;;7.20;;
47519;SDS011;33252;48.122;11.538;2023-05-07T01:46:48;7.60;;;6.30;;
47519;SDS011;33252;48.122;11.538;2023-05-07T01:49:14;7.40;;;6.60;;
47519;SDS011;33252;48.122;11.538;2023-05-07T01:51:41;9.52;;;7.13;;
47519;SDS011;33252;48.122;11.538;2023-05-07T01:54:07;8.73;;;7.82;;
47519;SDS011;33252;48.122;11.538;2023-05-07T01:56:33;7.35;;;6.57;;
47519;SDS011;33252;48.122;11.538;2023-05-07T01:59:01;7.15;;;5.93;;
47519;SDS011;33252;48.122;11.538;2023-05-07T02:01:27;8.75;;;6.72;;
47519;SDS011;33252;48.122;11.538;2023-05-07T02:03:53;9.43;;;6.40;;
47519;SDS011;33252;48.122;11.538;2023-05-07T02:06:19;7.20;;;6.32;;
47519;SDS011;33252;48.122;11.538;2023-05-07T02:08:45;7.28;;;6.25;;
47519;SDS011;33252;48.122;11.538;2023-05-07T02:11:11;9.90;;;6.50;;
47519;SDS011;33252;48.122;11.538;2023-05-07T02:13:36;6.68;;;5.88;;
47519;SDS011;33252;48.122;11.538;2023-05-07T02:16:02;6.90;;;6.20;;
47519;SDS011;33252;48.122;11.538;2023-05-07T02:18:28;8.70;;;6.50;;
47519;SDS011;33252;48.122;11.538;2023-05-07T02:20:54;11.07;;;6.30;;
47519;SDS011;33252;48.122;11.538;2023-05-07T02:23:20;6.35;;;5.70;;
47519;SDS011;33252;48.122;11.538;2023-05-07T02:25:46;7.05;;;5.53;;
47519;SDS011;33252;48.122;11.538;2023-05-07T02:28:11;8.13;;;6.63;;
47519;SDS011;33252;48.122;11.538;2023-05-07T02:30:38;7.03;;;5.97;;
47519;SDS011;33252;48.122;11.538;2023-05-07T02:33:03;6.68;;;5.90;;
47519;SDS011;33252;48.122;11.538;2023-05-07T02:35:29;6.68;;;5.72;;
47519;SDS011;33252;48.122;11.538;2023-05-07T02:37:55;9.15;;;5.80;;
47519;SDS011;33252;48.122;11.538;2023-05-07T02:40:20;7.53;;;6.30;;
47519;SDS011;33252;48.122;11.538;2023-05-07T02:42:46;8.07;;;5.97;;
47519;SDS011;33252;48.122;11.538;2023-05-07T02:45:12;6.50;;;5.65;;
47519;SDS011;33252;48.122;11.538;2023-05-07T02:47:37;9.73;;;6.00;;
47519;SDS011;33252;48.122;11.538;2023-05-07T02:50:03;6.75;;;5.82;;
47519;SDS011;33252;48.122;11.538;2023-05-07T02:52:29;8.65;;;5.78;;
47519;SDS011;33252;48.122;11.538;2023-05-07T02:54:55;6.05;;;4.97;;
47519;SDS011;33252;48.122;11.538;2023-05-07T02:57:20;6.15;;;5.53;;
47519;SDS011;33252;48.122;11.538;2023-05-07T02:59:46;5.53;;;4.65;;
47519;SDS011;33252;48.122;11.538;2023-05-07T03:02:12;6.72;;;5.60;;
47519;SDS011;33252;48.122;11.538;2023-05-07T03:04:38;7.20;;;5.55;;
47519;SDS011;33252;48.122;11.538;2023-05-07T03:07:04;7.20;;;5.05;;
47519;SDS011;33252;48.122;11.538;2023-05-07T03:09:30;6.47;;;5.78;;
47519;SDS011;33252;48.122;11.538;2023-05-07T03:11:56;6.57;;;5.63;;
47519;SDS011;33252;48.122;11.538;2023-05-07T03:14:22;5.50;;;5.00;;
47519;SDS011;33252;48.122;11.538;2023-05-07T03:16:48;7.25;;;4.97;;
47519;SDS011;33252;48.122;11.538;2023-05-07T03:19:14;8.07;;;5.05;;
47519;SDS011;33252;48.122;11.538;2023-05-07T03:21:40;6.45;;;5.82;;
47519;SDS011;33252;48.122;11.538;2023-05-07T03:24:05;8.48;;;5.05;;
47519;SDS011;33252;48.122;11.538;2023-05-07T03:26:31;5.28;;;4.78;;
47519;SDS011;33252;48.122;11.538;2023-05-07T03:28:57;5.60;;;5.00;;
47519;SDS011;33252;48.122;11.538;2023-05-07T03:31:22;7.55;;;5.40;;
47519;SDS011;33252;48.122;11.538;2023-05-07T03:33:52;5.57;;;5.05;;
47519;SDS011;33252;48.122;11.538;2023-05-07T03:36:19;6.70;;;4.97;;
47519;SDS011;33252;48.122;11.538;2023-05-07T03:38:45;7.90;;;5.18;;
47519;SDS011;33252;48.122;11.538;2023-05-07T03:41:11;6.57;;;5.07;;
47519;SDS011;33252;48.122;11.538;2023-05-07T03:43:37;6.35;;;5.65;;
47519;SDS011;33252;48.122;11.538;2023-05-07T03:46:03;5.65;;;5.05;;
47519;SDS011;33252;48.122;11.538;2023-05-07T03:48:28;7.03;;;5.20;;
47519;SDS011;33252;48.122;11.538;2023-05-07T03:50:55;5.75;;;5.13;;
47519;SDS011;33252;48.122;11.538;2023-05-07T03:53:22;9.63;;;5.40;;
47519;SDS011;33252;48.122;11.538;2023-05-07T03:55:47;6.75;;;4.38;;
47519;SDS011;33252;48.122;11.538;2023-05-07T03:58:13;6.63;;;5.50;;
47519;SDS011;33252;48.122;11.538;2023-05-07T04:00:38;5.95;;;5.15;;
47519;SDS011;33252;48.122;11.538;2023-05-07T04:03:05;8.38;;;5.07;;
47519;SDS011;33252;48.122;11.538;2023-05-07T04:05:32;8.23;;;5.70;;
47519;SDS011;33252;48.122;11.538;2023-05-07T04:07:58;5.75;;;5.25;;
47519;SDS011;33252;48.122;11.538;2023-05-07T04:10:24;8.73;;;5.03;;
47519;SDS011;33252;48.122;11.538;2023-05-07T04:12:50;6.43;;;5.35;;
47519;SDS011;33252;48.122;11.538;2023-05-07T04:15:16;8.65;;;5.40;;
47519;SDS011;33252;48.122;11.538;2023-05-07T04:17:42;7.05;;;5.22;;
47519;SDS011;33252;48.122;11.538;2023-05-07T04:20:08;6.20;;;5.60;;
47519;SDS011;33252;48.122;11.538;2023-05-07T04:22:35;5.32;;;4.85;;
47519;SDS011;33252;48.122;11.538;2023-05-07T04:25:01;6.38;;;5.00;;
47519;SDS011;33252;48.122;11.538;2023-05-07T04:27:27;5.60;;;5.03;;
47519;SDS011;33252;48.122;11.538;2023-05-07T04:29:53;6.05;;;4.90;;
47519;SDS011;33252;48.122;11.538;2023-05-07T04:32:21;6.45;;;4.85;;
47519;SDS011;33252;48.122;11.538;2023-05-07T04:34:47;6.30;;;5.57;;
47519;SDS011;33252;48.122;11.538;2023-05-07T04:37:13;6.22;;;5.05;;
47519;SDS011;33252;48.122;11.538;2023-05-07T04:39:38;7.18;;;5.40;;
47519;SDS011;33252;48.122;11.538;2023-05-07T04:42:04;7.47;;;5.97;;
47519;SDS011;33252;48.122;11.538;2023-05-07T04:44:32;6.07;;;5.25;;
47519;SDS011;33252;48.122;11.538;2023-05-07T04:46:59;6.85;;;5.47;;
47519;SDS011;33252;48.122;11.538;2023-05-07T04:49:24;5.20;;;4.72;;
47519;SDS011;33252;48.122;11.538;2023-05-07T04:51:50;6.00;;;5.40;;
47519;SDS011;33252;48.122;11.538;2023-05-07T04:54:16;7.07;;;5.57;;
47519;SDS011;33252;48.122;11.538;2023-05-07T04:56:41;6.68;;;5.22;;
47519;SDS011;33252;48.122;11.538;2023-05-07T04:59:07;5.97;;;5.38;;
47519;SDS011;33252;48.122;11.538;2023-05-07T05:01:33;6.03;;;5.43;;
47519;SDS011;33252;48.122;11.538;2023-05-07T05:03:58;6.00;;;5.32;;
47519;SDS011;33252;48.122;11.538;2023-05-07T05:06:25;7.45;;;6.15;;
47519;SDS011;33252;48.122;11.538;2023-05-07T05:08:51;7.22;;;5.93;;
47519;SDS011;33252;48.122;11.538;2023-05-07T05:11:16;7.15;;;5.82;;
47519;SDS011;33252;48.122;11.538;2023-05-07T05:13:42;7.70;;;5.95;;
47519;SDS011;33252;48.122;11.538;2023-05-07T05:16:08;6.80;;;5.32;;
47519;SDS011;33252;48.122;11.538;2023-05-07T05:18:34;5.85;;;5.10;;
47519;SDS011;33252;48.122;11.538;2023-05-07T05:20:59;7.00;;;5.43;;
47519;SDS011;33252;48.122;11.538;2023-05-07T05:23:25;6.13;;;5.40;;
47519;SDS011;33252;48.122;11.538;2023-05-07T05:25:55;5.82;;;5.18;;
47519;SDS011;33252;48.122;11.538;2023-05-07T05:28:22;7.97;;;4.97;;
47519;SDS011;33252;48.122;11.538;2023-05-07T05:30:48;9.15;;;6.05;;
47519;SDS011;33252;48.122;11.538;2023-05-07T05:33:14;8.77;;;5.80;;
47519;SDS011;33252;48.122;11.538;2023-05-07T05:35:39;8.35;;;5.40;;
47519;SDS011;33252;48.122;11.538;2023-05-07T05:38:05;5.68;;;5.05;;
47519;SDS011;33252;48.122;11.538;2023-05-07T05:40:31;5.13;;;4.65;;
47519;SDS011;33252;48.122;11.538;2023-05-07T05:42:57;8.10;;;5.25;;
47519;SDS011;33252;48.122;11.538;2023-05-07T05:45:22;4.90;;;4.50;;
47519;SDS011;33252;48.122;11.538;2023-05-07T05:47:48;8.23;;;4.30;;
47519;SDS011;33252;48.122;11.538;2023-05-07T05:50:14;8.48;;;4.75;;
47519;SDS011;33252;48.122;11.538;2023-05-07T05:52:39;4.00;;;3.42;;
47519;SDS011;33252;48.122;11.538;2023-05-07T05:55:06;5.05;;;4.25;;
47519;SDS011;33252;48.122;11.538;2023-05-07T05:57:31;5.97;;;5.03;;
47519;SDS011;33252;48.122;11.538;2023-05-07T05:59:57;4.40;;;3.80;;
47519;SDS011;33252;48.122;11.538;2023-05-07T06:02:23;5.45;;;4.82;;
47519;SDS011;33252;48.122;11.538;2023-05-07T06:04:49;5.20;;;4.07;;
47519;SDS011;33252;48.122;11.538;2023-05-07T06:07:14;8.50;;;4.80;;
47519;SDS011;33252;48.122;11.538;2023-05-07T06:09:40;6.10;;;4.07;;
47519;SDS011;33252;48.122;11.538;2023-05-07T06:12:06;6.22;;;5.63;;
47519;SDS011;33252;48.122;11.538;2023-05-07T06:14:31;6.47;;;4.68;;
47519;SDS011;33252;48.122;11.538;2023-05-07T06:16:57;6.28;;;4.38;;
47519;SDS011;33252;48.122;11.538;2023-05-07T06:19:23;7.28;;;3.85;;
47519;SDS011;33252;48.122;11.538;2023-05-07T06:21:49;4.80;;;4.22;;
47519;SDS011;33252;48.122;11.538;2023-05-07T06:24:15;7.28;;;5.00;;
47519;SDS011;33252;48.122;11.538;2023-05-07T06:26:40;6.45;;;4.93;;
47519;SDS011;33252;48.122;11.538;2023-05-07T06:29:06;4.88;;;4.38;;
47519;SDS011;33252;48.122;11.538;2023-05-07T06:31:32;6.15;;;4.63;;
47519;SDS011;33252;48.122;11.538;2023-05-07T06:33:57;5.78;;;3.90;;
47519;SDS011;33252;48.122;11.538;2023-05-07T06:36:24;4.47;;;3.70;;
47519;SDS011;33252;48.122;11.538;2023-05-07T06:38:50;4.07;;;3.63;;
47519;SDS011;33252;48.122;11.538;2023-05-07T06:41:15;3.95;;;3.53;;
47519;SDS011;33252;48.122;11.538;2023-05-07T06:43:41;7.00;;;4.32;;
47519;SDS011;33252;48.122;11.538;2023-05-07T06:46:06;5.45;;;3.25;;
47519;SDS011;33252;48.122;11.538;2023-05-07T06:48:32;8.13;;;3.90;;
47519;SDS011;33252;48.122;11.538;2023-05-07T06:50:58;4.55;;;3.10;;
47519;SDS011;33252;48.122;11.538;2023-05-07T06:53:23;4.00;;;3.22;;
47519;SDS011;33252;48.122;11.538;2023-05-07T06:55:49;6.93;;;4.63;;
47519;SDS011;33252;48.122;11.538;2023-05-07T06:58:15;4.15;;;2.92;;
47519;SDS011;33252;48.122;11.538;2023-05-07T07:00:41;3.58;;;3.17;;
47519;SDS011;33252;48.122;11.538;2023-05-07T07:03:06;4.50;;;3.28;;
47519;SDS011;33252;48.122;11.538;2023-05-07T07:05:32;4.32;;;3.13;;
47519;SDS011;33252;48.122;11.538;2023-05-07T07:07:58;4.35;;;3.40;;
47519;SDS011;33252;48.122;11.538;2023-05-07T07:10:24;5.45;;;3.60;;
47519;SDS011;33252;48.122;11.538;2023-05-07T07:12:49;5.75;;;3.03;;
47519;SDS011;33252;48.122;11.538;2023-05-07T07:15:17;6.00;;;3.60;;
47519;SDS011;33252;48.122;11.538;2023-05-07T07:17:43;7.07;;;3.58;;
47519;SDS011;33252;48.122;11.538;2023-05-07T07:20:08;3.33;;;3.03;;
47519;SDS011;33252;48.122;11.538;2023-05-07T07:22:35;4.80;;;3.35;;
47519;SDS011;33252;48.122;11.538;2023-05-07T07:25:00;3.92;;;3.25;;
47519;SDS011;33252;48.122;11.538;2023-05-07T07:27:26;4.90;;;3.22;;
47519;SDS011;33252;48.122;11.538;2023-05-07T07:29:51;4.72;;;3.47;;
47519;SDS011;33252;48.122;11.538;2023-05-07T07:32:17;3.42;;;3.13;;
47519;SDS011;33252;48.122;11.538;2023-05-07T07:34:44;3.40;;;3.10;;
47519;SDS011;33252;48.122;11.538;2023-05-07T07:37:09;4.22;;;3.55;;
47519;SDS011;33252;48.122;11.538;2023-05-07T07:39:35;4.93;;;3.45;;
47519;SDS011;33252;48.122;11.538;2023-05-07T07:42:02;3.97;;;3.35;;
47519;SDS011;33252;48.122;11.538;2023-05-07T07:44:28;8.48;;;3.70;;
47519;SDS011;33252;48.122;11.538;2023-05-07T07:46:54;4.90;;;3.40;;
47519;SDS011;33252;48.122;11.538;2023-05-07T07:49:19;4.68;;;3.20;;
47519;SDS011;33252;48.122;11.538;2023-05-07T07:51:45;3.20;;;2.88;;
47519;SDS011;33252;48.122;11.538;2023-05-07T07:54:11;5.25;;;3.35;;
47519;SDS011;33252;48.122;11.538;2023-05-07T07:56:36;4.30;;;2.70;;
47519;SDS011;33252;48.122;11.538;2023-05-07T07:59:02;6.25;;;3.25;;
47519;SDS011;33252;48.122;11.538;2023-05-07T08:01:29;6.05;;;2.53;;
47519;SDS011;33252;48.122;11.538;2023-05-07T08:03:55;5.13;;;2.58;;
47519;SDS011;33252;48.122;11.538;2023-05-07T08:06:23;4.32;;;2.63;;
47519;SDS011;33252;48.122;11.538;2023-05-07T08:08:50;4.05;;;2.63;;
47519;SDS011;33252;48.122;11.538;2023-05-07T08:19:27;3.03;;;2.45;;
47519;SDS011;33252;48.122;11.538;2023-05-07T08:21:53;5.93;;;3.05;;
47519;SDS011;33252;48.122;11.538;2023-05-07T08:24:18;3.72;;;2.90;;
47519;SDS011;33252;48.122;11.538;2023-05-07T08:26:44;5.05;;;3.03;;
47519;SDS011;33252;48.122;11.538;2023-05-07T08:29:10;3.28;;;2.72;;
47519;SDS011;33252;48.122;11.538;2023-05-07T08:31:36;4.45;;;3.13;;
47519;SDS011;33252;48.122;11.538;2023-05-07T08:34:03;3.30;;;3.00;;
47519;SDS011;33252;48.122;11.538;2023-05-07T08:36:29;3.53;;;3.03;;
47519;SDS011;33252;48.122;11.538;2023-05-07T08:38:55;3.63;;;2.60;;
47519;SDS011;33252;48.122;11.538;2023-05-07T08:41:21;5.55;;;3.33;;
47519;SDS011;33252;48.122;11.538;2023-05-07T08:43:48;4.05;;;2.75;;
47519;SDS011;33252;48.122;11.538;2023-05-07T08:46:19;3.55;;;2.53;;
47519;SDS011;33252;48.122;11.538;2023-05-07T08:48:49;4.88;;;2.88;;
47519;SDS011;33252;48.122;11.538;2023-05-07T08:51:16;6.07;;;2.85;;
47519;SDS011;33252;48.122;11.538;2023-05-07T08:53:43;2.90;;;2.25;;
47519;SDS011;33252;48.122;11.538;2023-05-07T08:56:10;3.20;;;2.05;;
47519;SDS011;33252;48.122;11.538;2023-05-07T08:58:36;4.28;;;2.33;;
47519;SDS011;33252;48.122;11.538;2023-05-07T09:01:07;3.92;;;2.00;;
47519;SDS011;33252;48.122;11.538;2023-05-07T09:03:36;6.45;;;2.45;;
47519;SDS011;33252;48.122;11.538;2023-05-07T09:06:03;3.38;;;2.58;;
47519;SDS011;33252;48.122;11.538;2023-05-07T09:08:28;2.83;;;2.63;;
47519;SDS011;33252;48.122;11.538;2023-05-07T09:10:54;3.58;;;2.38;;
47519;SDS011;33252;48.122;11.538;2023-05-07T09:13:20;7.20;;;2.58;;
47519;SDS011;33252;48.122;11.538;2023-05-07T09:15:46;3.78;;;2.10;;
47519;SDS011;33252;48.122;11.538;2023-05-07T09:18:12;3.90;;;3.03;;
47519;SDS011;33252;48.122;11.538;2023-05-07T09:20:38;5.82;;;2.63;;
47519;SDS011;33252;48.122;11.538;2023-05-07T09:23:05;3.60;;;2.15;;
47519;SDS011;33252;48.122;11.538;2023-05-07T09:25:32;4.05;;;2.20;;
47519;SDS011;33252;48.122;11.538;2023-05-07T09:28:02;3.00;;;2.40;;
47519;SDS011;33252;48.122;11.538;2023-05-07T09:30:30;3.35;;;2.45;;
47519;SDS011;33252;48.122;11.538;2023-05-07T09:32:56;2.78;;;2.30;;
47519;SDS011;33252;48.122;11.538;2023-05-07T09:35:23;3.08;;;1.83;;
47519;SDS011;33252;48.122;11.538;2023-05-07T09:37:53;3.30;;;1.88;;
47519;SDS011;33252;48.122;11.538;2023-05-07T09:40:29;3.20;;;2.38;;
47519;SDS011;33252;48.122;11.538;2023-05-07T09:42:56;3.60;;;1.77;;
47519;SDS011;33252;48.122;11.538;2023-05-07T09:45:33;1.83;;;1.70;;
47519;SDS011;33252;48.122;11.538;2023-05-07T09:47:59;2.38;;;1.83;;
47519;SDS011;33252;48.122;11.538;2023-05-07T09:50:30;3.40;;;1.70;;
47519;SDS011;33252;48.122;11.538;2023-05-07T09:53:01;2.83;;;1.30;;
47519;SDS011;33252;48.122;11.538;2023-05-07T09:55:28;3.00;;;2.10;;
47519;SDS011;33252;48.122;11.538;2023-05-07T09:57:53;2.22;;;1.70;;
47519;SDS011;33252;48.122;11.538;2023-05-07T10:00:20;4.47;;;2.15;;
47519;SDS011;33252;48.122;11.538;2023-05-07T10:02:51;4.88;;;2.47;;
47519;SDS011;33252;48.122;11.538;2023-05-07T10:05:21;2.40;;;1.50;;
47519;SDS011;33252;48.122;11.538;2023-05-07T10:07:47;3.45;;;1.70;;
47519;SDS011;33252;48.122;11.538;2023-05-07T10:10:14;2.92;;;1.80;;
47519;SDS011;33252;48.122;11.538;2023-05-07T10:12:41;3.28;;;2.47;;
47519;SDS011;33252;48.122;11.538;2023-05-07T10:15:09;3.45;;;1.88;;
47519;SDS011;33252;48.122;11.538;2023-05-07T10:17:36;5.00;;;2.35;;
47519;SDS011;33252;48.122;11.538;2023-05-07T10:20:04;5.88;;;2.20;;
47519;SDS011;33252;48.122;11.538;2023-05-07T10:22:32;2.15;;;1.70;;
47519;SDS011;33252;48.122;11.538;2023-05-07T10:25:03;3.75;;;2.13;;
47519;SDS011;33252;48.122;11.538;2023-05-07T10:27:34;3.45;;;2.97;;
47519;SDS011;33252;48.122;11.538;2023-05-07T10:32:42;3.70;;;1.70;;
47519;SDS011;33252;48.122;11.538;2023-05-07T10:35:20;2.50;;;1.80;;
47519;SDS011;33252;48.122;11.538;2023-05-07T10:37:56;1.92;;;1.75;;
47519;SDS011;33252;48.122;11.538;2023-05-07T10:40:22;3.13;;;1.67;;
47519;SDS011;33252;48.122;11.538;2023-05-07T10:42:54;2.55;;;1.98;;
47519;SDS011;33252;48.122;11.538;2023-05-07T10:45:30;2.13;;;1.83;;
47519;SDS011;33252;48.122;11.538;2023-05-07T10:50:35;3.60;;;1.50;;
47519;SDS011;33252;48.122;11.538;2023-05-07T10:55:48;2.78;;;1.77;;
47519;SDS011;33252;48.122;11.538;2023-05-07T11:00:59;2.47;;;1.83;;
47519;SDS011;33252;48.122;11.538;2023-05-07T11:03:26;2.95;;;1.85;;
47519;SDS011;33252;48.122;11.538;2023-05-07T11:06:12;5.05;;;2.17;;
47519;SDS011;33252;48.122;11.538;2023-05-07T11:14:11;2.88;;;1.70;;
47519;SDS011;33252;48.122;11.538;2023-05-07T11:16:38;3.70;;;1.98;;
47519;SDS011;33252;48.122;11.538;2023-05-07T11:19:06;3.60;;;1.95;;
47519;SDS011;33252;48.122;11.538;2023-05-07T11:24:02;1.75;;;1.63;;
47519;SDS011;33252;48.122;11.538;2023-05-07T11:26:41;2.97;;;1.48;;
47519;SDS011;33252;48.122;11.538;2023-05-07T11:29:17;4.53;;;1.70;;
47519;SDS011;33252;48.122;11.538;2023-05-07T11:31:44;3.90;;;2.05;;
47519;SDS011;33252;48.122;11.538;2023-05-07T11:34:14;2.83;;;2.40;;
47519;SDS011;33252;48.122;11.538;2023-05-07T11:36:45;3.63;;;2.10;;
47519;SDS011;33252;48.122;11.538;2023-05-07T11:39:28;2.28;;;1.65;;
47519;SDS011;33252;48.122;11.538;2023-05-07T11:41:57;2.22;;;1.92;;
47519;SDS011;33252;48.122;11.538;2023-05-07T11:44:23;3.58;;;2.45;;
47519;SDS011;33252;48.122;11.538;2023-05-07T11:46:49;2.50;;;2.05;;
47519;SDS011;33252;48.122;11.538;2023-05-07T11:49:15;4.60;;;2.25;;
47519;SDS011;33252;48.122;11.538;2023-05-07T11:51:41;4.07;;;2.10;;
47519;SDS011;33252;48.122;11.538;2023-05-07T11:54:07;4.95;;;2.05;;
47519;SDS011;33252;48.122;11.538;2023-05-07T11:56:36;2.63;;;2.17;;
47519;SDS011;33252;48.122;11.538;2023-05-07T11:59:02;2.78;;;2.58;;
47519;SDS011;33252;48.122;11.538;2023-05-07T12:01:28;3.53;;;2.13;;
47519;SDS011;33252;48.122;11.538;2023-05-07T12:03:53;4.07;;;2.08;;
47519;SDS011;33252;48.122;11.538;2023-05-07T12:06:19;5.63;;;2.75;;
47519;SDS011;33252;48.122;11.538;2023-05-07T12:08:45;3.65;;;3.35;;
47519;SDS011;33252;48.122;11.538;2023-05-07T12:11:15;3.60;;;2.92;;
47519;SDS011;33252;48.122;11.538;2023-05-07T12:13:47;3.78;;;2.67;;
47519;SDS011;33252;48.122;11.538;2023-05-07T12:16:12;3.45;;;2.78;;
47519;SDS011;33252;48.122;11.538;2023-05-07T12:18:39;4.82;;;2.85;;
47519;SDS011;33252;48.122;11.538;2023-05-07T12:21:05;4.82;;;2.88;;
47519;SDS011;33252;48.122;11.538;2023-05-07T12:23:32;9.50;;;2.80;;
47519;SDS011;33252;48.122;11.538;2023-05-07T12:25:59;3.17;;;2.45;;
47519;SDS011;33252;48.122;11.538;2023-05-07T12:28:25;3.70;;;2.25;;
47519;SDS011;33252;48.122;11.538;2023-05-07T12:30:50;3.08;;;2.30;;
47519;SDS011;33252;48.122;11.538;2023-05-07T12:33:18;3.40;;;2.92;;
47519;SDS011;33252;48.122;11.538;2023-05-07T12:35:48;2.95;;;2.20;;
47519;SDS011;33252;48.122;11.538;2023-05-07T12:38:15;4.43;;;2.47;;
47519;SDS011;33252;48.122;11.538;2023-05-07T12:43:24;4.18;;;2.65;;
47519;SDS011;33252;48.122;11.538;2023-05-07T12:45:53;2.55;;;2.25;;
47519;SDS011;33252;48.122;11.538;2023-05-07T12:48:20;3.85;;;2.28;;
47519;SDS011;33252;48.122;11.538;2023-05-07T12:50:50;3.17;;;1.80;;
47519;SDS011;33252;48.122;11.538;2023-05-07T12:53:19;2.15;;;1.90;;
47519;SDS011;33252;48.122;11.538;2023-05-07T12:55:48;3.42;;;2.00;;
47519;SDS011;33252;48.122;11.538;2023-05-07T12:58:15;6.50;;;2.40;;
47519;SDS011;33252;48.122;11.538;2023-05-07T13:00:47;2.47;;;1.75;;
47519;SDS011;33252;48.122;11.538;2023-05-07T13:03:20;3.97;;;2.00;;
47519;SDS011;33252;48.122;11.538;2023-05-07T13:05:54;4.65;;;2.65;;
47519;SDS011;33252;48.122;11.538;2023-05-07T13:08:24;2.70;;;1.85;;
47519;SDS011;33252;48.122;11.538;2023-05-07T13:10:51;4.18;;;1.80;;
47519;SDS011;33252;48.122;11.538;2023-05-07T13:13:18;2.70;;;1.90;;
47519;SDS011;33252;48.122;11.538;2023-05-07T13:15:45;3.45;;;2.38;;
47519;SDS011;33252;48.122;11.538;2023-05-07T13:18:10;3.42;;;1.77;;
47519;SDS011;33252;48.122;11.538;2023-05-07T13:20:36;3.85;;;1.80;;
47519;SDS011;33252;48.122;11.538;2023-05-07T13:23:02;3.03;;;1.98;;
47519;SDS011;33252;48.122;11.538;2023-05-07T13:25:29;2.42;;;1.55;;
47519;SDS011;33252;48.122;11.538;2023-05-07T13:27:58;2.63;;;1.58;;
47519;SDS011;33252;48.122;11.538;2023-05-07T13:30:24;2.90;;;1.75;;
47519;SDS011;33252;48.122;11.538;2023-05-07T13:32:50;2.42;;;1.70;;
47519;SDS011;33252;48.122;11.538;2023-05-07T13:35:18;2.28;;;1.45;;
47519;SDS011;33252;48.122;11.538;2023-05-07T13:37:44;2.92;;;1.35;;
47519;SDS011;33252;48.122;11.538;2023-05-07T13:40:10;1.85;;;1.10;;
47519;SDS011;33252;48.122;11.538;2023-05-07T13:42:36;3.72;;;1.40;;
47519;SDS011;33252;48.122;11.538;2023-05-07T13:45:02;1.70;;;1.33;;
47519;SDS011;33252;48.122;11.538;2023-05-07T13:47:29;1.73;;;1.30;;
47519;SDS011;33252;48.122;11.538;2023-05-07T13:49:54;4.40;;;1.60;;
47519;SDS011;33252;48.122;11.538;2023-05-07T13:52:20;1.40;;;1.30;;
47519;SDS011;33252;48.122;11.538;2023-05-07T13:54:45;1.73;;;1.17;;
47519;SDS011;33252;48.122;11.538;2023-05-07T13:57:11;1.92;;;1.20;;
47519;SDS011;33252;48.122;11.538;2023-05-07T13:59:36;2.13;;;1.45;;
47519;SDS011;33252;48.122;11.538;2023-05-07T14:02:02;1.63;;;1.50;;
47519;SDS011;33252;48.122;11.538;2023-05-07T14:04:28;1.60;;;1.42;;
47519;SDS011;33252;48.122;11.538;2023-05-07T14:06:55;1.35;;;1.00;;
47519;SDS011;33252;48.122;11.538;2023-05-07T14:09:21;2.03;;;1.00;;
47519;SDS011;33252;48.122;11.538;2023-05-07T14:11:46;1.52;;;1.10;;
47519;SDS011;33252;48.122;11.538;2023-05-07T14:14:16;2.28;;;1.48;;
47519;SDS011;33252;48.122;11.538;2023-05-07T14:16:44;3.78;;;1.20;;
47519;SDS011;33252;48.122;11.538;2023-05-07T14:19:11;8.35;;;1.58;;
47519;SDS011;33252;48.122;11.538;2023-05-07T14:21:37;3.92;;;1.48;;
47519;SDS011;33252;48.122;11.538;2023-05-07T14:24:03;1.80;;;1.20;;
47519;SDS011;33252;48.122;11.538;2023-05-07T14:26:29;1.95;;;1.20;;
47519;SDS011;33252;48.122;11.538;2023-05-07T14:28:55;1.45;;;1.20;;
47519;SDS011;33252;48.122;11.538;2023-05-07T14:31:23;2.90;;;2.00;;
47519;SDS011;33252;48.122;11.538;2023-05-07T14:33:49;3.58;;;2.15;;
47519;SDS011;33252;48.122;11.538;2023-05-07T14:36:15;4.38;;;2.55;;
47519;SDS011;33252;48.122;11.538;2023-05-07T14:38:42;5.18;;;1.95;;
47519;SDS011;33252;48.122;11.538;2023-05-07T14:41:08;6.38;;;2.95;;
47519;SDS011;33252;48.122;11.538;2023-05-07T14:43:33;4.88;;;2.72;;
47519;SDS011;33252;48.122;11.538;2023-05-07T14:45:59;3.78;;;2.13;;
47519;SDS011;33252;48.122;11.538;2023-05-07T14:48:25;4.10;;;2.20;;
47519;SDS011;33252;48.122;11.538;2023-05-07T14:50:50;4.25;;;2.03;;
47519;SDS011;33252;48.122;11.538;2023-05-07T14:53:16;8.02;;;3.53;;
47519;SDS011;33252;48.122;11.538;2023-05-07T14:55:42;2.50;;;2.13;;
47519;SDS011;33252;48.122;11.538;2023-05-07T14:58:07;3.45;;;2.20;;
47519;SDS011;33252;48.122;11.538;2023-05-07T15:00:33;3.03;;;2.10;;